< < Back
Terminal Aerodrome Forecast


Current Version              Previous Versions:   1  2  3  4  5  6  7  8  9  

Terminal Aerodrome Forecast

675
FTUS42 KTAE 041120
TAFVLD
TAF
KVLD 041120Z 0412/0512 00000KT P6SM SCT250
      TEMPO 0412/0413 1SM BR BKN002
     FM041800 23005KT P6SM VCTS BKN050CB
      TEMPO 0420/0424 VRB15G25KT 2SM TSRA SCT010 BKN030CB
     FM050300 00000KT P6SM BKN250=



Latest METAR

857
SAUS70 KWBC 041100 RRG
MTRVLD
METAR KVLD 041053Z AUTO 00000KT 1/4SM FG VV002 23/23 A3009 RMK AO2
SLP196 T02280228 TSNO


USA.gov is the U.S. government's official web portal to all federal, state and local government web resources and services.